Time;durP1;ratioP1;P1;durP2;ratioP2;P2;SDS_P1;SDS_P2;PMS_P1;PMS_P2;Temp;Humidity;BMP_temperature;BMP_pressure;BME280_temperature;BME280_humidity;BME280_pressure;Samples;Min_cycle;Max_cycle;Signal;HPM_P1;HPM_P2
2024/01/05 00:00:32;;;;;;;0.95;0.55;;;;;;;9.02;60.07;98289.25;4937495;29;20027;-82
2024/01/05 00:02:59;;;;;;;1.20;0.60;;;;;;;8.98;60.26;98306.03;4921301;29;20130;-82
2024/01/05 00:05:25;;;;;;;1.52;0.60;;;;;;;8.99;60.01;98313.75;4937532;29;20090;-84
2024/01/05 00:07:52;;;;;;;0.88;0.50;;;;;;;8.94;60.25;98315.06;4921470;29;20122;-83
2024/01/05 00:10:17;;;;;;;1.52;0.60;;;;;;;8.89;59.93;98323.22;4913470;29;20035;-83
2024/01/05 00:12:43;;;;;;;1.02;0.50;;;;;;;8.92;59.92;98335.16;4937569;29;20035;-83
2024/01/05 00:15:11;;;;;;;1.27;0.60;;;;;;;8.84;59.65;98331.38;4921141;29;20036;-84
2024/01/05 00:17:37;;;;;;;0.98;0.50;;;;;;;8.88;59.62;98342.38;4920870;29;20055;-83
2024/01/05 00:20:04;;;;;;;0.82;0.45;;;;;;;8.84;59.69;98344.38;4905747;29;20035;-83
2024/01/05 00:22:29;;;;;;;1.02;0.40;;;;;;;8.82;59.33;98342.81;4937125;29;20467;-83
2024/01/05 00:24:55;;;;;;;1.48;0.55;;;;;;;8.78;59.36;98339.63;4920955;29;20058;-83
2024/01/05 00:27:20;;;;;;;0.85;0.50;;;;;;;8.78;59.55;98342.25;4921700;29;20067;-83
2024/01/05 00:29:46;;;;;;;0.98;0.50;;;;;;;8.82;59.18;98343.69;4905432;29;20091;-83
2024/01/05 00:32:11;;;;;;;0.60;0.40;;;;;;;8.81;59.28;98346.41;4921141;29;20051;-83
2024/01/05 00:34:37;;;;;;;1.25;0.43;;;;;;;8.80;59.07;98334.31;4904735;29;20545;-84
2024/01/05 00:37:03;;;;;;;1.02;0.40;;;;;;;8.83;58.88;98339.28;4905488;29;20114;-83
2024/01/05 00:39:29;;;;;;;0.40;0.30;;;;;;;8.84;58.64;98335.75;4905231;29;20043;-83
2024/01/05 00:41:54;;;;;;;0.90;0.50;;;;;;;8.80;58.48;98327.31;4937272;29;20090;-84
2024/01/05 00:44:19;;;;;;;0.73;0.40;;;;;;;8.85;58.40;98337.38;4905366;29;20038;-83
2024/01/05 00:46:45;;;;;;;0.50;0.38;;;;;;;8.82;58.34;98330.66;4905272;29;20046;-84
2024/01/05 00:49:11;;;;;;;0.82;0.30;;;;;;;8.85;58.17;98335.59;4921043;29;20039;-83
2024/01/05 00:51:36;;;;;;;0.52;0.30;;;;;;;8.87;58.18;98338.94;4905325;29;20027;-83
2024/01/05 00:54:01;;;;;;;0.57;0.30;;;;;;;8.90;58.09;98337.03;4920876;29;20065;-80
2024/01/05 00:56:27;;;;;;;1.17;0.40;;;;;;;8.92;57.98;98337.75;4937366;28;20035;-82
2024/01/05 00:58:52;;;;;;;0.75;0.32;;;;;;;8.85;57.93;98325.19;4939787;29;20031;-82
2024/01/05 01:01:18;;;;;;;1.15;0.28;;;;;;;8.86;57.84;98323.44;4908682;29;20071;-83
2024/01/05 01:03:43;;;;;;;0.10;0.10;;;;;;;8.90;57.56;98322.25;4923739;29;20035;-83
2024/01/05 01:06:09;;;;;;;0.98;0.35;;;;;;;8.98;57.39;98337.28;4908420;29;20497;-82
2024/01/05 01:08:35;;;;;;;0.80;0.30;;;;;;;8.99;57.25;98346.75;4940116;29;20066;-81
2024/01/05 01:11:01;;;;;;;2.10;0.40;;;;;;;9.01;57.63;98352.69;4940056;29;20027;-81
2024/01/05 01:13:27;;;;;;;0.82;0.30;;;;;;;9.02;57.16;98352.56;4925092;29;20063;-82
2024/01/05 01:15:52;;;;;;;0.50;0.38;;;;;;;9.01;57.05;98339.66;4924576;29;20549;-82
2024/01/05 01:18:18;;;;;;;0.65;0.30;;;;;;;9.04;56.83;98347.25;4940517;29;20035;-82
2024/01/05 01:20:43;;;;;;;0.90;0.25;;;;;;;9.04;56.86;98348.09;4940862;29;20090;-84
2024/01/05 01:23:09;;;;;;;1.85;0.40;;;;;;;9.03;56.78;98335.19;4925816;29;20063;-84
2024/01/05 01:25:34;;;;;;;0.40;0.25;;;;;;;9.04;56.71;98329.00;4924985;29;20047;-83
2024/01/05 01:28:02;;;;;;;0.98;0.50;;;;;;;9.04;56.61;98334.22;4924376;29;20039;-82
2024/01/05 01:30:28;;;;;;;0.90;0.50;;;;;;;9.09;56.60;98339.91;4940273;29;20027;-82
2024/01/05 01:32:53;;;;;;;0.22;0.22;;;;;;;8.99;56.53;98318.13;4908613;29;20039;-82
2024/01/05 01:35:19;;;;;;;0.73;0.20;;;;;;;9.07;56.54;98331.38;4924095;29;20028;-83
2024/01/05 01:37:44;;;;;;;0.40;0.22;;;;;;;9.08;56.12;98333.06;4907843;29;20046;-83
2024/01/05 01:40:10;;;;;;;1.52;0.43;;;;;;;9.15;56.37;98344.63;4923765;28;20039;-83
2024/01/05 01:42:36;;;;;;;0.43;0.28;;;;;;;9.16;56.13;98328.06;4923751;29;20071;-83
2024/01/05 01:45:01;;;;;;;0.80;0.40;;;;;;;9.18;56.03;98341.78;4907680;29;20458;-83
2024/01/05 01:47:28;;;;;;;1.88;0.75;;;;;;;9.19;56.10;98330.44;4907767;29;20039;-83
2024/01/05 01:49:53;;;;;;;1.00;0.30;;;;;;;9.18;56.13;98325.34;4923456;29;20050;-82
2024/01/05 01:52:19;;;;;;;0.57;0.40;;;;;;;9.23;56.00;98323.22;4907179;29;20511;-82
2024/01/05 01:54:44;;;;;;;0.90;0.40;;;;;;;9.20;55.53;98313.03;4907646;28;20395;-81
2024/01/05 01:57:10;;;;;;;0.75;0.40;;;;;;;9.24;55.27;98323.09;4923551;29;20067;-82
2024/01/05 01:59:35;;;;;;;1.15;0.40;;;;;;;9.28;55.13;98322.88;4923306;29;20055;-83
2024/01/05 02:02:01;;;;;;;0.70;0.30;;;;;;;9.29;54.98;98322.75;4907272;29;20085;-82
2024/01/05 02:04:26;;;;;;;0.50;0.32;;;;;;;9.32;55.02;98332.09;4907510;29;20482;-83
2024/01/05 02:06:52;;;;;;;0.38;0.20;;;;;;;9.33;54.93;98337.19;4907416;29;20039;-82
2024/01/05 02:09:18;;;;;;;0.65;0.30;;;;;;;9.32;54.83;98335.53;4921939;29;20102;-83
2024/01/05 02:11:44;;;;;;;1.23;0.30;;;;;;;9.32;54.98;98330.31;4907420;29;20050;-83
2024/01/05 02:14:09;;;;;;;0.43;0.35;;;;;;;9.30;54.34;98327.03;4907253;29;20403;-83
2024/01/05 02:16:35;;;;;;;2.53;0.30;;;;;;;9.31;54.57;98333.88;4907823;29;20042;-83
2024/01/05 02:19:00;;;;;;;0.93;0.40;;;;;;;9.30;54.56;98340.03;4922986;29;20047;-83
2024/01/05 02:21:30;;;;;;;0.50;0.30;;;;;;;9.34;54.64;98356.25;4923670;29;20466;-82
2024/01/05 02:23:56;;;;;;;0.40;0.20;;;;;;;9.29;54.60;98364.41;4923465;29;20134;-83
2024/01/05 02:26:21;;;;;;;0.68;0.25;;;;;;;9.32;54.37;98374.59;4908121;29;20042;-83
2024/01/05 02:28:47;;;;;;;1.55;0.30;;;;;;;9.26;54.42;98366.44;4906973;29;20439;-83
2024/01/05 02:31:12;;;;;;;0.52;0.30;;;;;;;9.26;54.04;98382.06;4907546;29;20054;-83
2024/01/05 02:33:38;;;;;;;1.42;0.30;;;;;;;9.21;54.12;98385.84;4923249;29;20023;-84
2024/01/05 02:36:04;;;;;;;1.20;0.50;;;;;;;9.24;54.06;98390.81;4907986;29;20038;-84
2024/01/05 02:38:29;;;;;;;1.00;0.50;;;;;;;9.22;53.87;98381.47;4923031;28;20034;-82
2024/01/05 02:40:55;;;;;;;0.50;0.30;;;;;;;9.20;53.90;98386.81;4906943;29;20043;-84
2024/01/05 02:43:22;;;;;;;0.90;0.40;;;;;;;9.15;53.95;98396.72;4938433;29;20043;-88
2024/01/05 02:45:47;;;;;;;1.15;0.50;;;;;;;9.16;53.68;98394.97;4924094;29;20085;-89
2024/01/05 02:48:12;;;;;;;0.90;0.20;;;;;;;9.11;53.78;98395.31;4908079;29;20035;-89
2024/01/05 02:50:38;;;;;;;0.82;0.43;;;;;;;9.12;53.61;98401.34;4924155;29;20038;-91
2024/01/05 02:53:03;;;;;;;1.92;0.55;;;;;;;9.08;53.71;98411.16;4924215;29;20103;-90
2024/01/05 02:55:29;;;;;;;1.17;0.43;;;;;;;9.14;53.42;98417.66;4939661;29;20058;-89
2024/01/05 02:57:54;;;;;;;1.25;0.40;;;;;;;9.12;53.49;98415.19;4923002;29;20570;-87
2024/01/05 03:00:20;;;;;;;0.82;0.40;;;;;;;9.08;53.34;98416.38;4956042;29;20034;-89
2024/01/05 03:02:45;;;;;;;1.42;0.50;;;;;;;9.15;52.84;98422.75;4938976;29;20125;-88
2024/01/05 03:05:11;;;;;;;2.10;0.80;;;;;;;9.10;52.69;98411.88;4922971;29;20102;-87
2024/01/05 03:07:36;;;;;;;1.25;0.90;;;;;;;9.16;52.72;98424.44;4922468;29;20031;-89
2024/01/05 03:10:02;;;;;;;2.47;1.00;;;;;;;9.13;52.39;98427.25;4923115;29;20034;-89
2024/01/05 03:12:28;;;;;;;1.27;0.80;;;;;;;9.14;52.32;98425.47;4954461;29;20029;-86
2024/01/05 03:14:53;;;;;;;1.17;0.80;;;;;;;9.15;52.29;98437.56;4922514;29;20539;-89
2024/01/05 03:17:19;;;;;;;2.17;1.20;;;;;;;9.14;52.37;98446.31;4922904;29;20495;-89
2024/01/05 03:19:44;;;;;;;2.25;1.15;;;;;;;9.07;52.37;98432.09;4955043;29;20388;-88
2024/01/05 03:22:10;;;;;;;1.83;1.10;;;;;;;9.07;52.29;98439.91;4938045;29;20038;-89
2024/01/05 03:24:35;;;;;;;2.17;1.20;;;;;;;9.07;52.47;98442.53;4954482;29;20090;-87
2024/01/05 03:27:01;;;;;;;1.67;1.05;;;;;;;9.05;52.46;98443.47;4956329;29;20171;-86
2024/01/05 03:29:26;;;;;;;4.75;1.70;;;;;;;9.03;52.39;98444.53;4957452;29;20038;-86
2024/01/05 03:31:52;;;;;;;3.00;1.38;;;;;;;9.01;52.58;98441.19;4926631;29;20043;-87
2024/01/05 03:34:17;;;;;;;2.13;1.40;;;;;;;9.01;52.45;98449.00;4923520;29;20441;-88
2024/01/05 03:36:43;;;;;;;2.28;1.20;;;;;;;8.93;52.55;98436.56;4938169;29;20035;-86
2024/01/05 03:39:08;;;;;;;2.42;1.25;;;;;;;8.89;52.46;98437.75;4926353;29;20169;-85
2024/01/05 03:41:34;;;;;;;1.50;1.10;;;;;;;8.93;52.53;98456.56;4943258;29;20105;-86
2024/01/05 03:43:59;;;;;;;2.10;1.20;;;;;;;8.93;52.87;98461.75;4922628;29;20182;-88
2024/01/05 03:46:25;;;;;;;5.30;1.50;;;;;;;8.85;52.57;98455.34;4922679;29;20082;-87
2024/01/05 03:48:50;;;;;;;2.03;1.10;;;;;;;8.88;52.52;98462.94;4938360;29;20063;-88
2024/01/05 03:51:16;;;;;;;2.80;1.40;;;;;;;8.86;53.01;98464.00;4938528;29;20038;-88
2024/01/05 03:53:41;;;;;;;2.50;1.45;;;;;;;8.81;52.77;98459.13;4922842;29;20395;-87
2024/01/05 03:56:08;;;;;;;2.33;1.20;;;;;;;8.80;52.73;98457.47;4939116;29;20090;-89
2024/01/05 03:58:34;;;;;;;2.35;1.30;;;;;;;8.81;52.96;98468.72;4923111;29;20082;-88
2024/01/05 04:01:00;;;;;;;2.03;0.98;;;;;;;8.78;53.06;98467.16;4922491;29;20051;-87
2024/01/05 04:03:26;;;;;;;2.40;1.02;;;;;;;8.77;53.33;98481.09;4927496;29;20066;-89
2024/01/05 04:05:52;;;;;;;2.10;1.20;;;;;;;8.76;53.28;98494.22;4938702;29;20035;-88
2024/01/05 04:08:18;;;;;;;1.77;1.10;;;;;;;8.72;53.11;98493.63;4938405;29;20407;-89
2024/01/05 04:10:43;;;;;;;2.05;1.02;;;;;;;8.66;53.18;98489.69;4923463;29;20039;-88
2024/01/05 04:13:09;;;;;;;2.17;1.17;;;;;;;8.69;52.69;98502.47;4938320;29;20040;-89
2024/01/05 04:15:35;;;;;;;1.90;1.00;;;;;;;8.69;52.90;98499.88;4906490;29;20043;-87
2024/01/05 04:18:01;;;;;;;2.40;1.10;;;;;;;8.63;52.75;98484.72;4938615;29;20034;-86
2024/01/05 04:20:26;;;;;;;1.88;1.00;;;;;;;8.64;52.65;98502.00;4922824;29;20043;-88
2024/01/05 04:22:52;;;;;;;1.73;1.00;;;;;;;8.62;52.76;98498.69;4937990;29;20035;-87
2024/01/05 04:25:18;;;;;;;2.50;0.90;;;;;;;8.61;53.11;98515.22;4922488;29;20065;-88
2024/01/05 04:27:43;;;;;;;2.58;1.00;;;;;;;8.62;52.68;98514.28;4938818;29;20110;-87
2024/01/05 04:30:09;;;;;;;1.35;0.90;;;;;;;8.66;52.91;98525.28;4938397;29;20035;-86
2024/01/05 04:32:35;;;;;;;1.63;1.02;;;;;;;8.67;53.17;98527.78;4940089;29;20030;-88
2024/01/05 04:35:01;;;;;;;1.98;1.13;;;;;;;8.62;53.06;98526.47;4942659;29;20027;-81
2024/01/05 04:37:26;;;;;;;1.35;0.80;;;;;;;8.64;53.02;98546.22;4927637;29;20086;-88
2024/01/05 04:39:52;;;;;;;1.73;0.80;;;;;;;8.65;53.67;98550.50;4942430;29;20054;-79
2024/01/05 04:42:17;;;;;;;2.42;0.85;;;;;;;8.78;62.42;98552.22;4942221;29;20043;-85
2024/01/05 04:44:43;;;;;;;1.73;0.80;;;;;;;8.88;59.81;98555.81;4910597;29;20491;-81
2024/01/05 04:47:08;;;;;;;1.85;0.90;;;;;;;8.94;62.23;98564.97;4925158;29;20034;-80
2024/01/05 04:49:34;;;;;;;6.25;1.23;;;;;;;8.97;61.84;98578.59;4910739;29;20035;-79
2024/01/05 04:52:00;;;;;;;1.90;0.90;;;;;;;9.15;65.56;98570.38;4958734;29;20036;-85
2024/01/05 04:54:26;;;;;;;5.75;1.08;;;;;;;9.12;63.09;98581.84;4925737;29;20034;-83
2024/01/05 04:56:52;;;;;;;3.85;1.20;;;;;;;9.03;62.13;98572.13;4928676;29;20036;-85
2024/01/05 04:59:18;;;;;;;3.35;1.10;;;;;;;9.04;63.41;98584.19;4942815;29;20478;-72
2024/01/05 05:01:43;;;;;;;1.90;1.08;;;;;;;9.02;62.18;98589.50;4957207;29;20035;-70
2024/01/05 05:04:08;;;;;;;2.65;1.27;;;;;;;8.98;61.80;98597.63;4939953;29;20035;-72
2024/01/05 05:06:34;;;;;;;3.10;1.00;;;;;;;8.93;61.52;98594.53;4908044;29;20102;-76
2024/01/05 05:09:00;;;;;;;3.38;1.05;;;;;;;9.03;64.20;98614.59;4943627;29;20031;-80
2024/01/05 05:11:25;;;;;;;3.53;1.50;;;;;;;9.01;63.57;98611.28;4925759;29;20062;-77
2024/01/05 05:13:51;;;;;;;2.63;1.30;;;;;;;9.00;62.97;98616.59;4924062;29;20074;-77
2024/01/05 05:16:16;;;;;;;2.05;1.00;;;;;;;8.88;62.92;98615.69;4923643;29;20507;-78
2024/01/05 05:18:41;;;;;;;1.98;1.10;;;;;;;8.80;62.25;98623.22;4939847;29;20035;-77
2024/01/05 05:21:07;;;;;;;5.38;1.33;;;;;;;8.77;61.43;98632.06;4956715;29;20493;-78
2024/01/05 05:23:33;;;;;;;5.47;1.88;;;;;;;8.81;61.11;98648.31;4907913;29;20086;-79
2024/01/05 05:25:59;;;;;;;2.30;1.42;;;;;;;8.78;60.77;98641.53;4924330;29;20075;-82
2024/01/05 05:28:24;;;;;;;8.80;1.52;;;;;;;8.85;64.80;98645.34;4923910;29;20027;-76
2024/01/05 05:30:50;;;;;;;2.63;1.17;;;;;;;8.85;63.80;98644.53;4939404;29;20039;-77
2024/01/05 05:33:15;;;;;;;3.08;1.20;;;;;;;8.81;63.33;98646.53;4907919;29;20487;-78
2024/01/05 05:35:41;;;;;;;2.17;1.08;;;;;;;8.74;62.81;98642.69;4908384;29;20039;-77
2024/01/05 05:38:06;;;;;;;2.45;1.30;;;;;;;8.76;62.35;98651.25;4908466;29;20027;-79
2024/01/05 05:40:32;;;;;;;2.75;1.15;;;;;;;8.74;62.04;98660.09;4908501;29;20193;-79
2024/01/05 05:42:58;;;;;;;2.58;1.35;;;;;;;8.73;61.92;98661.00;4956127;29;20062;-77
2024/01/05 05:45:24;;;;;;;2.30;1.20;;;;;;;8.73;61.42;98667.06;4906963;29;20077;-79
2024/01/05 05:47:50;;;;;;;2.72;1.10;;;;;;;8.69;61.46;98663.81;4923832;29;20043;-76
2024/01/05 05:50:16;;;;;;;4.55;1.77;;;;;;;8.73;61.01;98676.63;4923735;29;20038;-79
2024/01/05 05:52:43;;;;;;;3.45;1.98;;;;;;;8.75;60.44;98673.00;4907554;29;20502;-77
2024/01/05 05:55:12;;;;;;;4.75;1.30;;;;;;;8.74;59.89;98671.31;4939352;29;20055;-77
2024/01/05 05:57:40;;;;;;;3.63;1.23;;;;;;;8.86;59.62;98667.84;4939804;29;20027;-77
2024/01/05 06:00:06;;;;;;;2.53;1.30;;;;;;;9.21;58.79;98682.75;4939264;29;20110;-79
2024/01/05 06:02:32;;;;;;;3.10;1.42;;;;;;;9.50;57.79;98666.78;4939178;29;20122;-78
2024/01/05 06:04:58;;;;;;;2.75;1.50;;;;;;;9.93;56.50;98673.22;4923198;29;20027;-78
2024/01/05 06:07:24;;;;;;;3.22;1.42;;;;;;;10.50;55.12;98682.00;4938980;29;20035;-77
2024/01/05 06:09:50;;;;;;;2.30;1.10;;;;;;;11.16;53.82;98678.63;4939219;29;20521;-74
2024/01/05 06:12:15;;;;;;;2.20;1.00;;;;;;;11.90;51.68;98685.72;4956078;29;20027;-76
2024/01/05 06:14:41;;;;;;;5.18;1.23;;;;;;;12.72;49.60;98679.72;4922806;29;20475;-75
2024/01/05 06:17:06;;;;;;;1.70;1.00;;;;;;;13.63;47.64;98682.31;4938704;29;20043;-75
2024/01/05 06:19:32;;;;;;;2.00;1.20;;;;;;;14.55;45.60;98680.06;4922122;29;20082;-75
2024/01/05 06:21:59;;;;;;;2.30;1.00;;;;;;;15.55;43.38;98679.25;4922501;29;20043;-74
2024/01/05 06:24:25;;;;;;;5.57;1.13;;;;;;;16.51;40.83;98671.56;4922954;29;20134;-74
2024/01/05 06:26:51;;;;;;;2.20;1.15;;;;;;;17.46;39.11;98669.63;4938572;29;20035;-74
2024/01/05 06:29:17;;;;;;;1.85;1.10;;;;;;;18.47;36.95;98686.13;4922961;29;20047;-74
2024/01/05 06:31:43;;;;;;;1.52;1.00;;;;;;;19.42;35.28;98687.06;4938369;29;20036;-74
2024/01/05 06:34:08;;;;;;;2.28;1.40;;;;;;;20.35;33.08;98707.22;4923363;29;20035;-75
2024/01/05 06:36:34;;;;;;;4.47;2.00;;;;;;;21.27;31.46;98697.25;4921925;29;20063;-75
2024/01/05 06:38:59;;;;;;;4.05;2.25;;;;;;;22.04;30.32;98698.41;4937872;29;20047;-77
2024/01/05 06:41:25;;;;;;;3.97;2.40;;;;;;;22.76;28.95;98693.81;4922741;29;20058;-76
2024/01/05 06:43:50;;;;;;;4.60;2.92;;;;;;;23.54;27.88;98698.81;4922554;29;20453;-74
2024/01/05 06:46:16;;;;;;;5.35;2.80;;;;;;;24.36;26.95;98710.16;4923011;29;20095;-76
2024/01/05 06:48:41;;;;;;;7.68;3.20;;;;;;;24.98;25.65;98714.38;4922324;29;20510;-76
2024/01/05 06:51:07;;;;;;;4.43;3.30;;;;;;;25.61;24.46;98713.69;4922648;29;20039;-76
2024/01/05 06:53:32;;;;;;;6.20;3.80;;;;;;;26.16;24.07;98721.94;4906563;29;20027;-76
2024/01/05 06:55:58;;;;;;;5.40;4.00;;;;;;;26.57;23.20;98709.03;4921990;29;20063;-75
2024/01/05 06:58:23;;;;;;;5.28;3.85;;;;;;;26.86;22.94;98718.19;4906544;29;20034;-73
2024/01/05 07:00:49;;;;;;;8.95;5.18;;;;;;;26.98;22.53;98722.81;4922238;29;20383;-75
2024/01/05 07:03:15;;;;;;;8.43;5.43;;;;;;;27.03;22.50;98725.66;4937914;29;20082;-75
2024/01/05 07:05:40;;;;;;;6.88;5.03;;;;;;;26.99;22.07;98737.84;4922224;29;20046;-74
2024/01/05 07:08:08;;;;;;;7.90;4.95;;;;;;;26.74;22.60;98722.69;4954957;29;20031;-76
2024/01/05 07:10:34;;;;;;;8.52;5.05;;;;;;;26.60;22.97;98731.84;4938580;29;20039;-75
2024/01/05 07:12:59;;;;;;;7.82;4.72;;;;;;;26.40;22.89;98732.84;4954745;29;20406;-75
2024/01/05 07:15:25;;;;;;;6.95;4.60;;;;;;;26.20;23.05;98737.56;4937802;29;20042;-73
2024/01/05 07:17:50;;;;;;;8.63;5.72;;;;;;;26.02;23.02;98738.34;4906180;29;20039;-75
2024/01/05 07:20:16;;;;;;;10.60;5.60;;;;;;;25.93;23.33;98745.75;4921436;29;20047;-75
2024/01/05 07:22:41;;;;;;;9.63;5.07;;;;;;;25.77;23.24;98747.91;4905664;29;20070;-76
2024/01/05 07:25:10;;;;;;;9.43;5.15;;;;;;;25.69;23.53;98747.38;4905963;29;20062;-74
2024/01/05 07:27:36;;;;;;;10.50;5.35;;;;;;;25.61;23.81;98756.44;4938149;29;20049;-76
2024/01/05 07:30:04;;;;;;;7.88;5.03;;;;;;;25.52;23.84;98753.19;4921453;29;20145;-75
2024/01/05 07:32:29;;;;;;;7.60;4.82;;;;;;;25.45;24.00;98752.41;4937004;29;20039;-79
2024/01/05 07:34:55;;;;;;;7.30;4.70;;;;;;;25.44;23.66;98754.28;4921999;29;20038;-76
2024/01/05 07:37:21;;;;;;;7.00;4.95;;;;;;;25.45;22.98;98761.25;4905892;29;20062;-76
2024/01/05 07:39:47;;;;;;;6.70;5.13;;;;;;;25.41;23.15;98772.56;4954745;29;20039;-75
2024/01/05 07:42:12;;;;;;;8.73;4.93;;;;;;;25.56;22.76;98764.28;4922169;29;20402;-74
2024/01/05 07:44:38;;;;;;;9.98;4.43;;;;;;;25.67;22.76;98773.50;4937373;29;20051;-76
2024/01/05 07:47:04;;;;;;;10.82;5.18;;;;;;;25.82;22.93;98761.47;4921621;29;20036;-76
2024/01/05 07:49:30;;;;;;;8.40;4.70;;;;;;;25.92;22.91;98761.00;4937294;29;20039;-76
2024/01/05 07:51:55;;;;;;;7.32;4.60;;;;;;;26.08;22.87;98772.25;4905861;29;20039;-75
2024/01/05 07:54:21;;;;;;;8.75;4.97;;;;;;;26.17;23.22;98777.09;4921331;29;20125;-77
2024/01/05 07:56:46;;;;;;;6.78;4.50;;;;;;;26.28;23.26;98777.41;4953380;29;20074;-76
2024/01/05 07:59:12;;;;;;;6.00;4.57;;;;;;;26.40;22.84;98778.34;4905805;29;20098;-75
2024/01/05 08:01:38;;;;;;;7.65;4.57;;;;;;;26.53;22.98;98778.25;4921496;29;20058;-75
2024/01/05 08:04:03;;;;;;;6.57;4.38;;;;;;;26.72;22.27;98780.97;4936936;29;20046;-76
2024/01/05 08:06:29;;;;;;;6.90;4.97;;;;;;;26.89;22.67;98774.00;4937720;28;20032;-75
2024/01/05 08:08:55;;;;;;;8.63;6.10;;;;;;;27.00;22.45;98785.03;4911439;29;20077;-75
2024/01/05 08:11:21;;;;;;;12.98;8.68;;;;;;;27.11;22.29;98776.25;4943620;29;20111;-76
2024/01/05 08:13:46;;;;;;;14.88;8.40;;;;;;;27.19;21.89;98788.53;4960812;28;20101;-75
2024/01/05 08:16:12;;;;;;;14.80;8.57;;;;;;;27.30;21.82;98793.13;4911790;29;20027;-74
2024/01/05 08:18:38;;;;;;;11.10;7.65;;;;;;;27.35;21.53;98803.19;4927661;29;20039;-75
2024/01/05 08:21:03;;;;;;;13.98;7.63;;;;;;;27.39;21.60;98802.53;4912010;29;20078;-73
2024/01/05 08:23:30;;;;;;;11.35;7.28;;;;;;;27.42;20.91;98798.56;4942385;29;20491;-74
2024/01/05 08:25:55;;;;;;;11.40;7.32;;;;;;;27.52;21.64;98809.59;4943360;29;20109;-75
2024/01/05 08:28:21;;;;;;;10.07;6.72;;;;;;;27.68;21.25;98813.50;4943248;29;20039;-74
2024/01/05 08:30:46;;;;;;;10.00;6.18;;;;;;;27.87;21.37;98810.78;4943259;29;20413;-77
2024/01/05 08:33:12;;;;;;;8.23;5.53;;;;;;;28.05;20.94;98808.06;4927046;29;20047;-76
2024/01/05 08:35:37;;;;;;;8.82;5.53;;;;;;;28.25;20.89;98806.94;4943576;29;20035;-80
2024/01/05 08:38:04;;;;;;;7.20;4.80;;;;;;;28.41;20.48;98811.63;4912226;29;20035;-77
2024/01/05 08:40:30;;;;;;;5.85;3.92;;;;;;;28.61;20.56;98807.84;4912016;29;20076;-74
2024/01/05 08:42:56;;;;;;;9.35;4.22;;;;;;;28.80;19.65;98809.34;4911660;29;20039;-76
2024/01/05 08:45:21;;;;;;;7.40;4.25;;;;;;;29.00;19.75;98811.69;4943196;29;20106;-77
2024/01/05 08:47:47;;;;;;;9.50;4.22;;;;;;;29.07;19.64;98816.94;4943373;29;20035;-76
2024/01/05 08:50:13;;;;;;;11.82;4.65;;;;;;;29.26;19.93;98814.13;4911443;29;20035;-76
2024/01/05 08:52:38;;;;;;;7.47;4.10;;;;;;;29.31;20.25;98815.03;4911752;28;20039;-75
2024/01/05 08:55:04;;;;;;;11.18;4.80;;;;;;;29.36;20.21;98815.13;4911269;29;20510;-75
2024/01/05 08:57:30;;;;;;;8.38;3.70;;;;;;;29.51;20.15;98816.50;4926674;29;20134;-74
2024/01/05 08:59:56;;;;;;;6.13;3.22;;;;;;;29.69;20.20;98820.88;4927851;29;20106;-74
2024/01/05 09:02:22;;;;;;;9.45;3.30;;;;;;;30.06;19.78;98818.66;4943593;29;20406;-75
2024/01/05 09:04:48;;;;;;;6.68;3.10;;;;;;;30.52;19.49;98813.22;4942849;28;20050;-76
2024/01/05 09:07:13;;;;;;;9.15;2.63;;;;;;;31.05;18.93;98804.84;4911733;29;20510;-77
2024/01/05 09:09:39;;;;;;;6.20;2.72;;;;;;;31.44;18.82;98804.75;4943029;29;20375;-74
2024/01/05 09:12:04;;;;;;;5.03;2.13;;;;;;;31.45;18.59;98798.31;4927212;29;20042;-77
2024/01/05 09:14:30;;;;;;;3.90;2.08;;;;;;;31.62;18.67;98790.16;4911327;28;20054;-74
2024/01/05 09:16:56;;;;;;;2.83;1.67;;;;;;;31.69;18.67;98788.91;4927464;29;20031;-76
2024/01/05 09:19:21;;;;;;;4.10;1.77;;;;;;;31.81;18.60;98794.13;4924513;29;20035;-75
2024/01/05 09:21:47;;;;;;;5.47;2.08;;;;;;;31.71;18.73;98783.25;4939882;29;20038;-75
2024/01/05 09:24:12;;;;;;;5.22;1.88;;;;;;;31.62;18.38;98780.19;4939505;29;20422;-75
2024/01/05 09:26:38;;;;;;;3.58;1.63;;;;;;;31.74;17.98;98775.47;4938752;29;20160;-74
2024/01/05 09:29:04;;;;;;;4.18;1.73;;;;;;;31.78;17.71;98778.44;4956622;29;20102;-74
2024/01/05 09:31:31;;;;;;;4.05;1.70;;;;;;;31.69;17.01;98778.13;4939989;29;20070;-75
2024/01/05 09:33:56;;;;;;;2.92;1.20;;;;;;;31.58;16.54;98772.84;4956563;29;20419;-75
2024/01/05 09:36:22;;;;;;;6.43;1.17;;;;;;;31.62;16.03;98782.06;4939542;29;20031;-74
2024/01/05 09:38:49;;;;;;;3.40;1.10;;;;;;;31.43;16.00;98776.19;4924059;29;20410;-75
2024/01/05 09:41:14;;;;;;;2.40;0.90;;;;;;;31.62;15.28;98780.19;4923631;29;20038;-76
2024/01/05 09:43:49;;;;;;;1.58;0.80;;;;;;;32.27;15.02;98781.06;4955381;29;20035;-74
2024/01/05 09:46:15;;;;;;;2.28;0.90;;;;;;;32.80;14.51;98772.28;4908228;29;20031;-75
2024/01/05 09:48:40;;;;;;;6.13;1.00;;;;;;;33.61;13.88;98773.69;4939436;29;20505;-75
2024/01/05 09:51:09;;;;;;;1.42;0.70;;;;;;;34.54;13.07;98779.97;4923953;29;20537;-76
2024/01/05 09:53:34;;;;;;;2.00;0.90;;;;;;;35.43;12.39;98768.59;4923477;29;20027;-75
2024/01/05 09:56:00;;;;;;;1.67;1.00;;;;;;;36.28;11.81;98763.13;4956717;29;20151;-76
2024/01/05 09:58:26;;;;;;;5.20;1.00;;;;;;;36.41;11.41;98767.91;4939562;29;20122;-76
2024/01/05 10:00:51;;;;;;;4.00;1.10;;;;;;;36.82;11.35;98774.88;4907575;29;20031;-79
2024/01/05 10:03:21;;;;;;;3.22;0.80;;;;;;;37.34;10.68;98769.59;4923250;29;20043;-78
2024/01/05 10:05:49;;;;;;;4.63;0.93;;;;;;;37.40;10.48;98768.44;4923279;29;20031;-78
2024/01/05 10:08:15;;;;;;;2.38;0.60;;;;;;;37.70;10.43;98767.22;4923243;29;20133;-76
2024/01/05 10:10:48;;;;;;;2.00;0.75;;;;;;;37.77;10.69;98772.28;4907421;29;20525;-80
2024/01/05 10:13:14;;;;;;;2.60;0.88;;;;;;;37.77;10.85;98777.75;4938913;29;20038;-78
2024/01/05 10:15:56;;;;;;;1.30;0.80;;;;;;;38.07;10.61;98762.81;4923268;29;20043;-80
2024/01/05 10:18:22;;;;;;;2.42;0.93;;;;;;;38.09;10.44;98759.78;4939175;29;20044;-76
2024/01/05 10:20:47;;;;;;;1.98;0.63;;;;;;;38.07;10.46;98749.19;4938763;29;20126;-76
2024/01/05 10:23:13;;;;;;;3.15;0.80;;;;;;;37.46;11.25;98749.03;4922744;29;20111;-75
2024/01/05 10:25:39;;;;;;;2.97;0.60;;;;;;;37.28;11.67;98742.47;4938627;29;20398;-77
2024/01/05 10:28:31;;;;;;;2.90;0.80;;;;;;;36.52;11.76;98744.16;4923087;29;20551;-76
2024/01/05 10:31:13;;;;;;;3.33;0.80;;;;;;;35.49;12.48;98748.47;4954197;28;20553;-76
2024/01/05 10:33:48;;;;;;;2.33;0.70;;;;;;;34.78;13.08;98738.75;4922598;29;20035;-76
2024/01/05 10:36:23;;;;;;;3.90;0.80;;;;;;;34.46;13.80;98736.34;4938224;29;20027;-75
2024/01/05 10:38:49;;;;;;;2.40;0.88;;;;;;;33.71;13.71;98730.41;4954648;29;20058;-77
2024/01/05 10:41:19;;;;;;;3.45;1.08;;;;;;;33.40;14.44;98726.00;4938540;29;20475;-75
2024/01/05 10:43:44;;;;;;;2.50;1.05;;;;;;;32.99;14.97;98716.66;4938482;29;20398;-74
2024/01/05 10:46:15;;;;;;;2.65;0.95;;;;;;;32.70;15.38;98718.16;4938399;29;20031;-75
2024/01/05 10:48:41;;;;;;;3.28;0.90;;;;;;;32.37;15.66;98717.41;4923003;29;20534;-75
2024/01/05 10:51:06;;;;;;;1.55;0.57;;;;;;;32.09;16.26;98711.28;4906596;29;20043;-74
2024/01/05 10:53:33;;;;;;;1.25;0.60;;;;;;;31.73;15.78;98710.94;4922228;29;20495;-74
2024/01/05 10:55:59;;;;;;;1.67;0.80;;;;;;;31.38;16.21;98704.13;4921999;29;20102;-75
2024/01/05 10:58:24;;;;;;;2.42;0.80;;;;;;;31.06;16.68;98695.94;4921651;29;20043;-78
2024/01/05 11:00:50;;;;;;;1.85;0.73;;;;;;;30.77;17.03;98682.63;4921980;29;20090;-75
2024/01/05 11:03:18;;;;;;;4.82;1.10;;;;;;;30.46;17.28;98685.75;4938368;29;20031;-77
2024/01/05 11:05:45;;;;;;;2.92;0.93;;;;;;;30.19;16.85;98679.38;4954476;29;20027;-74
2024/01/05 11:08:48;;;;;;;3.47;1.20;;;;;;;29.84;17.28;98672.41;4922178;29;20403;-75
2024/01/05 11:11:52;;;;;;;4.57;0.90;;;;;;;29.33;17.07;98675.81;4937804;29;20027;-75
2024/01/05 11:14:36;;;;;;;2.03;0.88;;;;;;;28.83;17.23;98687.19;4880225;29;20439;-76
2024/01/05 11:17:10;;;;;;;2.90;0.77;;;;;;;28.67;17.69;98677.97;4880948;29;20029;-75
2024/01/05 11:19:56;;;;;;;3.53;0.75;;;;;;;28.36;17.84;98679.19;4880113;29;20040;-74
2024/01/05 11:22:27;;;;;;;4.47;0.80;;;;;;;28.14;17.97;98677.06;4865737;29;20036;-75
2024/01/05 11:24:55;;;;;;;1.98;0.85;;;;;;;27.61;18.12;98678.69;4849297;29;20052;-74
2024/01/05 11:27:33;;;;;;;7.63;1.02;;;;;;;27.31;18.21;98679.56;4865195;29;20512;-74
2024/01/05 11:29:59;;;;;;;2.95;1.00;;;;;;;27.26;18.73;98674.00;4849347;29;20116;-73
2024/01/05 11:32:47;;;;;;;3.67;0.98;;;;;;;26.95;18.82;98664.34;4864887;29;20520;-74